sensor_id;sensor_type;location;lat;lon;timestamp;pressure;altitude;pressure_sealevel;temperature;humidity
12073;BME280;6098;49.004;8.372;2023-02-28T00:15:47;101218.94;;;0.85;61.77
12073;BME280;6098;49.004;8.372;2023-02-28T00:31:57;101218.86;;;0.78;62.03
12073;BME280;6098;49.004;8.372;2023-02-28T00:48:12;101226.52;;;0.67;62.59
12073;BME280;6098;49.004;8.372;2023-02-28T01:03:30;101223.95;;;0.69;62.59
12073;BME280;6098;49.004;8.372;2023-02-28T01:19:40;101227.34;;;0.62;62.76
12073;BME280;6098;49.004;8.372;2023-02-28T01:36:14;101217.13;;;0.49;63.29
12073;BME280;6098;49.004;8.372;2023-02-28T01:52:27;101222.36;;;0.51;63.36
12073;BME280;6098;49.004;8.372;2023-02-28T02:08:41;101213.95;;;0.41;64.04
12073;BME280;6098;49.004;8.372;2023-02-28T02:25:24;101202.89;;;0.28;64.81
12073;BME280;6098;49.004;8.372;2023-02-28T02:41:39;101203.55;;;0.15;65.60
12073;BME280;6098;49.004;8.372;2023-02-28T02:57:53;101208.28;;;0.12;66.14
12073;BME280;6098;49.004;8.372;2023-02-28T03:29:20;101204.52;;;0.21;66.52
12073;BME280;6098;49.004;8.372;2023-02-28T04:14:09;101196.39;;;0.29;66.67
12073;BME280;6098;49.004;8.372;2023-02-28T04:28:59;101197.81;;;0.37;66.58
12073;BME280;6098;49.004;8.372;2023-02-28T04:43:48;101194.70;;;0.33;66.59
12073;BME280;6098;49.004;8.372;2023-02-28T04:58:38;101195.51;;;0.29;66.68
12073;BME280;6098;49.004;8.372;2023-02-28T05:13:28;101208.10;;;0.28;67.11
12073;BME280;6098;49.004;8.372;2023-02-28T05:28:17;101216.14;;;0.14;67.59
12073;BME280;6098;49.004;8.372;2023-02-28T05:43:09;101222.41;;;0.25;67.38
12073;BME280;6098;49.004;8.372;2023-02-28T05:57:58;101224.17;;;0.27;67.34
12073;BME280;6098;49.004;8.372;2023-02-28T06:12:47;101212.53;;;0.34;67.28
12073;BME280;6098;49.004;8.372;2023-02-28T06:27:39;101220.58;;;0.47;66.94
12073;BME280;6098;49.004;8.372;2023-02-28T06:42:28;101232.04;;;0.56;66.55
12073;BME280;6098;49.004;8.372;2023-02-28T06:57:19;101251.92;;;0.78;65.62
12073;BME280;6098;49.004;8.372;2023-02-28T07:12:09;101261.16;;;0.86;65.12
12073;BME280;6098;49.004;8.372;2023-02-28T07:27:00;101269.52;;;0.93;64.77
12073;BME280;6098;49.004;8.372;2023-02-28T07:41:50;101267.09;;;1.05;64.15
12073;BME280;6098;49.004;8.372;2023-02-28T07:56:40;101267.28;;;1.19;63.56
12073;BME280;6098;49.004;8.372;2023-02-28T08:11:29;101272.68;;;1.33;63.28
12073;BME280;6098;49.004;8.372;2023-02-28T08:26:19;101285.38;;;1.39;62.42
12073;BME280;6098;49.004;8.372;2023-02-28T08:41:10;101296.48;;;1.55;62.09
12073;BME280;6098;49.004;8.372;2023-02-28T08:56:02;101300.80;;;1.88;61.20
12073;BME280;6098;49.004;8.372;2023-02-28T09:10:50;101302.73;;;2.08;59.93
12073;BME280;6098;49.004;8.372;2023-02-28T09:25:45;101296.48;;;2.36;59.14
12073;BME280;6098;49.004;8.372;2023-02-28T09:40:39;101290.16;;;2.63;58.03
12073;BME280;6098;49.004;8.372;2023-02-28T09:55:48;101283.88;;;2.98;56.85
12073;BME280;6098;49.004;8.372;2023-02-28T10:10:43;101285.70;;;3.13;55.92
12073;BME280;6098;49.004;8.372;2023-02-28T10:25:33;101299.71;;;3.20;55.21
12073;BME280;6098;49.004;8.372;2023-02-28T10:55:14;101302.05;;;3.45;54.51
12073;BME280;6098;49.004;8.372;2023-02-28T11:10:02;101297.23;;;3.43;54.78
12073;BME280;6098;49.004;8.372;2023-02-28T11:24:52;101273.75;;;3.76;54.28
12073;BME280;6098;49.004;8.372;2023-02-28T11:39:43;101279.91;;;3.97;53.12
12073;BME280;6098;49.004;8.372;2023-02-28T12:39:54;101239.36;;;5.84;47.82
12073;BME280;6098;49.004;8.372;2023-02-28T12:54:47;101233.20;;;5.79;47.12
12073;BME280;6098;49.004;8.372;2023-02-28T13:09:35;101213.64;;;6.20;46.26
12073;BME280;6098;49.004;8.372;2023-02-28T14:09:38;101218.81;;;6.35;47.01
12073;BME280;6098;49.004;8.372;2023-02-28T14:24:54;101219.83;;;6.15;46.83
12073;BME280;6098;49.004;8.372;2023-02-28T14:39:44;101204.63;;;6.49;46.56
12073;BME280;6098;49.004;8.372;2023-02-28T14:54:38;101199.84;;;6.45;46.42
12073;BME280;6098;49.004;8.372;2023-02-28T15:09:29;101202.63;;;6.26;47.02
12073;BME280;6098;49.004;8.372;2023-02-28T15:39:21;101204.13;;;6.04;47.29
12073;BME280;6098;49.004;8.372;2023-02-28T15:54:14;101202.79;;;6.05;47.56
12073;BME280;6098;49.004;8.372;2023-02-28T16:09:06;101210.79;;;5.93;47.71
12073;BME280;6098;49.004;8.372;2023-02-28T16:23:55;101219.17;;;5.77;48.18
12073;BME280;6098;49.004;8.372;2023-02-28T16:38:46;101223.20;;;5.62;48.70
12073;BME280;6098;49.004;8.372;2023-02-28T16:53:36;101236.44;;;5.48;49.13
12073;BME280;6098;49.004;8.372;2023-02-28T17:08:26;101248.38;;;5.16;50.13
12073;BME280;6098;49.004;8.372;2023-02-28T17:23:15;101262.01;;;4.89;50.85
12073;BME280;6098;49.004;8.372;2023-02-28T17:38:14;101272.98;;;4.72;51.37
12073;BME280;6098;49.004;8.372;2023-02-28T17:53:05;101292.70;;;4.54;51.85
12073;BME280;6098;49.004;8.372;2023-02-28T18:07:55;101297.05;;;4.36;52.20
12073;BME280;6098;49.004;8.372;2023-02-28T18:22:44;101290.92;;;4.24;52.68
12073;BME280;6098;49.004;8.372;2023-02-28T18:37:34;101294.37;;;4.12;52.84
12073;BME280;6098;49.004;8.372;2023-02-28T18:52:23;101287.80;;;3.97;53.12
12073;BME280;6098;49.004;8.372;2023-02-28T19:07:21;101295.22;;;3.89;53.33
12073;BME280;6098;49.004;8.372;2023-02-28T19:22:11;101303.47;;;3.72;53.64
12073;BME280;6098;49.004;8.372;2023-02-28T19:37:00;101305.59;;;3.62;53.76
12073;BME280;6098;49.004;8.372;2023-02-28T19:51:51;101298.58;;;3.54;54.08
12073;BME280;6098;49.004;8.372;2023-02-28T20:06:40;101299.33;;;3.32;54.47
12073;BME280;6098;49.004;8.372;2023-02-28T20:21:30;101303.63;;;3.15;54.92
12073;BME280;6098;49.004;8.372;2023-02-28T20:36:25;101293.48;;;2.98;55.39
12073;BME280;6098;49.004;8.372;2023-02-28T20:51:15;101295.58;;;2.87;55.77
12073;BME280;6098;49.004;8.372;2023-02-28T21:06:05;101302.45;;;2.72;56.34
12073;BME280;6098;49.004;8.372;2023-02-28T21:36:02;101292.20;;;2.48;57.29
12073;BME280;6098;49.004;8.372;2023-02-28T22:05:55;101294.14;;;2.21;58.56
12073;BME280;6098;49.004;8.372;2023-02-28T22:20:44;101297.00;;;2.01;59.40
12073;BME280;6098;49.004;8.372;2023-02-28T22:35:35;101293.45;;;1.95;59.67
12073;BME280;6098;49.004;8.372;2023-02-28T22:50:24;101279.40;;;1.84;60.28
12073;BME280;6098;49.004;8.372;2023-02-28T23:05:14;101278.45;;;1.79;60.60
12073;BME280;6098;49.004;8.372;2023-02-28T23:20:04;101284.91;;;1.70;61.02
12073;BME280;6098;49.004;8.372;2023-02-28T23:34:54;101289.20;;;1.66;61.65
12073;BME280;6098;49.004;8.372;2023-02-28T23:49:43;101296.05;;;1.57;61.82
